createdAt,value
2024-02-16T00:00:52.463Z,46.613
2024-02-16T00:05:57.712Z,42.633
2024-02-16T00:10:55.963Z,46.071
2024-02-16T00:15:52.528Z,44.278
2024-02-16T00:20:50.675Z,41.764
2024-02-16T00:25:55.312Z,47.062
2024-02-16T00:30:59.405Z,47.121
2024-02-16T00:35:58.609Z,42.393
2024-02-16T00:41:00.459Z,39.982
2024-02-16T00:46:01.542Z,41.998
2024-02-16T00:51:05.344Z,40.681
2024-02-16T00:56:00.307Z,44.24
2024-02-16T01:01:01.303Z,46.233
2024-02-16T01:06:03.170Z,45.529
2024-02-16T01:11:03.010Z,45.02
2024-02-16T01:16:01.568Z,47.296
2024-02-16T01:21:04.240Z,43.249
2024-02-16T01:26:00.357Z,46.531
2024-02-16T01:31:06.312Z,47.458
2024-02-16T01:36:06.647Z,41.391
2024-02-16T01:40:59.764Z,43.52
2024-02-16T01:45:57.862Z,44.544
2024-02-16T01:50:58.176Z,47.219
2024-02-16T01:55:58.644Z,41.905
2024-02-16T02:00:58.018Z,39.777
2024-02-16T02:06:00.915Z,42.048
2024-02-16T02:11:00.808Z,41.488
2024-02-16T02:16:00.485Z,48.043
2024-02-16T02:21:00.732Z,47.111
2024-02-16T02:26:00.269Z,49.716
2024-02-16T02:30:52.985Z,45.103
2024-02-16T02:35:58.882Z,51.265
2024-02-16T02:40:55.814Z,44.489
2024-02-16T02:45:54.819Z,44.125
2024-02-16T02:50:48.851Z,46.001
2024-02-16T02:55:48.706Z,48.405
2024-02-16T03:01:33.222Z,45.248
2024-02-16T03:05:49.304Z,49.43
2024-02-16T03:10:46.560Z,48.125
2024-02-16T03:15:48.942Z,40.659
2024-02-16T03:20:47.833Z,48.085
2024-02-16T03:25:50.464Z,49.528
2024-02-16T03:30:54.899Z,49.397
2024-02-16T03:35:55.237Z,48.93
2024-02-16T03:40:49.575Z,49.056
2024-02-16T03:45:58.538Z,48.817
2024-02-16T03:50:57.374Z,46.281
2024-02-16T03:55:51.372Z,48.957
2024-02-16T04:00:51.920Z,43.233
2024-02-16T04:05:59.670Z,36.614
2024-02-16T04:10:58.792Z,45.383
2024-02-16T04:16:05.977Z,48.812
2024-02-16T04:20:55.151Z,48.952
2024-02-16T04:26:01.947Z,42.604
2024-02-16T04:31:01.320Z,42.496
2024-02-16T04:35:51.020Z,53.019
2024-02-16T04:41:04.722Z,48.524
2024-02-16T04:46:04.873Z,47.163
2024-02-16T04:50:57.608Z,47.275
2024-02-16T04:55:58.739Z,47.847
2024-02-16T05:01:02.741Z,45.241
2024-02-16T05:06:01.693Z,44.289
2024-02-16T05:10:57.646Z,49.136
2024-02-16T05:16:05.490Z,37.49
2024-02-16T05:25:58.096Z,43.552
2024-02-16T05:30:49.379Z,40.205
2024-02-16T05:35:53.902Z,44.179
2024-02-16T05:40:57.342Z,37.663
2024-02-16T05:45:53.541Z,39.046
2024-02-16T05:50:56.879Z,36.646
2024-02-16T05:55:51.496Z,37.37
2024-02-16T06:00:54.769Z,39.42
2024-02-16T06:05:51.195Z,36.684
2024-02-16T06:10:50.807Z,34.079
2024-02-16T06:15:51.304Z,42.106
2024-02-16T06:20:52.873Z,40.107
2024-02-16T06:25:50.140Z,34.355
2024-02-16T06:30:50.285Z,35.004
2024-02-16T06:35:51.004Z,36.533
2024-02-16T06:40:50.640Z,34.642
2024-02-16T06:45:50.917Z,37.474
2024-02-16T06:50:52.608Z,39.413
2024-02-16T06:55:51.231Z,39.236
2024-02-16T07:00:51.473Z,36.972
2024-02-16T07:05:51.155Z,34.603
2024-02-16T07:10:50.718Z,37.393
2024-02-16T07:15:50.922Z,41.857
2024-02-16T07:20:53.740Z,31.928
2024-02-16T07:25:51.679Z,31.528
2024-02-16T07:30:51.090Z,40.275
2024-02-16T07:35:54.796Z,30.975
2024-02-16T07:41:09.364Z,34.257
2024-02-16T07:46:02.688Z,33.689
2024-02-16T07:51:04.397Z,32.319
2024-02-16T07:55:56.881Z,36.317
2024-02-16T08:01:01.294Z,33.943
2024-02-16T08:06:06.018Z,31.36
2024-02-16T08:11:05.011Z,28.96
2024-02-16T08:16:08.261Z,30.683
2024-02-16T08:21:00.928Z,27.595
2024-02-16T08:26:00.803Z,26.939
2024-02-16T08:31:04.618Z,26.035
2024-02-16T08:36:09.619Z,28.928
2024-02-16T08:41:05.120Z,30.033
2024-02-16T08:46:06.896Z,28.364
2024-02-16T08:51:06.581Z,25.354
2024-02-16T08:56:09.316Z,21.16
2024-02-16T09:01:03.000Z,25.986
2024-02-16T09:06:11.455Z,29.172
2024-02-16T09:11:08.073Z,23.836
2024-02-16T09:16:09.396Z,24.805
2024-02-16T09:21:13.664Z,25.337
2024-02-16T09:25:55.856Z,26.133
2024-02-16T09:31:02.649Z,27.205
2024-02-16T09:36:01.444Z,21.924
2024-02-16T09:40:59.488Z,21.864
2024-02-16T09:46:06.775Z,22.569
2024-02-16T09:50:57.254Z,20.661
2024-02-16T09:55:56.425Z,20.082
2024-02-16T10:01:03.561Z,18.696
2024-02-16T10:06:03.937Z,21.366
2024-02-16T10:10:55.081Z,19.633
2024-02-16T10:16:00.928Z,20.407
2024-02-16T10:21:08.993Z,19.757
2024-02-16T10:26:02.192Z,15.105
2024-02-16T10:30:57.797Z,19.074
2024-02-16T10:36:05.276Z,19.589
2024-02-16T10:40:55.118Z,16.03
2024-02-16T10:46:18.879Z,14
2024-02-16T10:51:00.851Z,17.694
2024-02-16T10:55:57.640Z,17.201
2024-02-16T11:01:04.179Z,15.3
2024-02-16T11:05:58.738Z,16.979
2024-02-16T11:10:59.508Z,16.972
2024-02-16T11:16:04.054Z,12.336
2024-02-16T11:21:10.287Z,14.33
2024-02-16T11:26:06.473Z,13.36
2024-02-16T11:31:09.389Z,15.95
2024-02-16T11:36:05.163Z,12.287
2024-02-16T11:41:01.013Z,11.199
2024-02-16T11:46:02.178Z,11.747
2024-02-16T11:51:13.782Z,13.675
2024-02-16T11:56:07.969Z,10.642
2024-02-16T12:01:12.893Z,15.386
2024-02-16T12:06:05.959Z,11.178
2024-02-16T12:11:02.465Z,17.932
2024-02-16T12:16:08.879Z,14.206
2024-02-16T12:21:06.705Z,14.541
2024-02-16T12:26:02.341Z,15.521
2024-02-16T12:31:11.453Z,14.742
2024-02-16T12:36:05.020Z,15.819
2024-02-16T12:40:53.694Z,18.257
2024-02-16T12:45:56.774Z,16.421
2024-02-16T12:51:00.391Z,19.188
2024-02-16T12:55:57.929Z,16.519
2024-02-16T13:01:27.436Z,11.822
2024-02-16T13:05:56.601Z,18.024
2024-02-16T13:10:55.992Z,16.762
2024-02-16T13:15:59.229Z,17.499
2024-02-16T13:20:56.507Z,19.879
2024-02-16T13:25:56.093Z,14.422
2024-02-16T13:31:00.065Z,16.102
2024-02-16T13:35:52.415Z,16.474
2024-02-16T13:40:55.026Z,14.449
2024-02-16T13:45:58.941Z,18.392
2024-02-16T13:50:58.819Z,12
2024-02-16T13:55:53.677Z,15.061
2024-02-16T14:01:00.244Z,12.342
2024-02-16T14:05:52.759Z,10.863
2024-02-16T14:10:55.633Z,10.414
2024-02-16T14:15:51.504Z,13.437
2024-02-16T14:20:56.452Z,13.626
2024-02-16T14:25:54.889Z,12.975
2024-02-16T14:31:09.212Z,12.477
2024-02-16T14:35:51.998Z,17.282
2024-02-16T14:40:57.326Z,17
2024-02-16T14:45:57.459Z,14.135
2024-02-16T14:51:09.627Z,13.137
2024-02-16T14:56:06.371Z,16.485
2024-02-16T15:01:10.475Z,16.647
2024-02-16T15:06:01.833Z,16.653
2024-02-16T15:10:58.131Z,17.845
2024-02-16T15:15:54.886Z,15.246
2024-02-16T15:20:57.463Z,13.989
2024-02-16T15:26:04.789Z,14.812
2024-02-16T15:31:00.580Z,13.794
2024-02-16T15:35:56.672Z,14.605
2024-02-16T15:41:03.717Z,16.578
2024-02-16T15:45:54.494Z,14.307
2024-02-16T15:51:03.909Z,14.222
2024-02-16T15:55:56.367Z,14.85
2024-02-16T16:00:59.310Z,14.047
2024-02-16T16:05:56.826Z,12.612
2024-02-16T16:10:52.024Z,17.726
2024-02-16T16:15:51.405Z,14.851
2024-02-16T16:20:56.038Z,16.308
2024-02-16T16:25:51.607Z,18.587
2024-02-16T16:30:53.821Z,14.591
2024-02-16T16:35:54.027Z,11.74
2024-02-16T16:40:57.216Z,13.48
2024-02-16T16:45:52.893Z,14.281
2024-02-16T16:50:53.509Z,14.47
2024-02-16T16:55:53.239Z,16.225
2024-02-16T17:00:56.722Z,12.223
2024-02-16T17:05:51.820Z,11.513
2024-02-16T17:10:52.020Z,10.393
2024-02-16T17:15:51.221Z,12.092
2024-02-16T17:20:51.016Z,12.186
2024-02-16T17:25:48.148Z,13.079
2024-02-16T17:30:48.940Z,13.658
2024-02-16T17:35:49.458Z,14.243
2024-02-16T17:40:53.082Z,12.586
2024-02-16T17:45:51.076Z,16.177
2024-02-16T17:50:50.027Z,12.38
2024-02-16T17:55:50.233Z,19.816
2024-02-16T18:00:53.075Z,15.098
2024-02-16T18:05:46.299Z,17.547
2024-02-16T18:10:46.675Z,18.349
2024-02-16T18:15:47.091Z,16.518
2024-02-16T18:20:52.975Z,15.943
2024-02-16T18:25:55.035Z,19.757
2024-02-16T18:30:58.581Z,16.414
2024-02-16T18:35:54.892Z,16.004
2024-02-16T18:40:54.566Z,15.592
2024-02-16T18:45:55.247Z,20.457
2024-02-16T18:50:57.491Z,16.659
2024-02-16T18:55:54.330Z,18.603
2024-02-16T19:00:59.847Z,22.474
2024-02-16T19:05:56.659Z,15.781
2024-02-16T19:11:01.361Z,18.348
2024-02-16T19:16:01.919Z,14.839
2024-02-16T19:20:57.374Z,17.401
2024-02-16T19:26:00.166Z,19.063
2024-02-16T19:30:59.413Z,18.663
2024-02-16T19:36:02.249Z,20.418
2024-02-16T19:41:04.127Z,22.239
2024-02-16T19:46:13.248Z,22.845
2024-02-16T19:50:52.781Z,22.033
2024-02-16T19:55:50.071Z,26.17
2024-02-16T20:00:49.959Z,26.506
2024-02-16T20:05:54.299Z,21.182
2024-02-16T20:10:50.171Z,27.211
2024-02-16T20:15:48.867Z,25.938
2024-02-16T20:20:55.187Z,25.282
2024-02-16T20:25:56.053Z,23.154
2024-02-16T20:30:52.244Z,22.845
2024-02-16T20:35:50.099Z,24.019
2024-02-16T20:40:53.284Z,25.98
2024-02-16T20:45:56.103Z,26.474
2024-02-16T20:50:46.436Z,28.002
2024-02-16T20:55:51.153Z,25.24
2024-02-16T21:00:50.618Z,31.521
2024-02-16T21:05:50.627Z,22.97
2024-02-16T21:10:51.362Z,28.782
2024-02-16T21:15:55.751Z,23.061
2024-02-16T21:20:49.755Z,23.657
2024-02-16T21:25:47.999Z,28.104
2024-02-16T21:30:55.064Z,32.629
2024-02-16T21:35:50.063Z,25.655
2024-02-16T21:40:52.097Z,31.663
2024-02-16T21:45:52.135Z,25.939
2024-02-16T21:50:46.797Z,25.661
2024-02-16T21:55:51.480Z,25.547
2024-02-16T22:01:01.466Z,28.272
2024-02-16T22:05:59.147Z,28.327
2024-02-16T22:11:01.003Z,24.562
2024-02-16T22:16:01.888Z,28.224
2024-02-16T22:21:01.119Z,30.477
2024-02-16T22:26:02.506Z,28.873
2024-02-16T22:30:58.288Z,25.455
2024-02-16T22:35:59.793Z,30.764
2024-02-16T22:40:58.766Z,28.846
2024-02-16T22:46:01.583Z,29.324
2024-02-16T22:51:01.433Z,31.223
2024-02-16T22:55:59.733Z,36.673
2024-02-16T23:01:17.688Z,33.575
2024-02-16T23:05:57.920Z,34.571
2024-02-16T23:11:03.861Z,35.856
2024-02-16T23:16:04.422Z,23.972
2024-02-16T23:21:08.251Z,33.645
2024-02-16T23:25:55.048Z,33.981
2024-02-16T23:31:02.499Z,27.205
2024-02-16T23:36:05.043Z,37.476
2024-02-16T23:40:59.041Z,31.43
2024-02-16T23:45:57.206Z,29.073
2024-02-16T23:51:03.232Z,26.496
2024-02-16T23:55:52.426Z,33.012
